Terminal Aerodrome Forecast
Issued by NWS

Home | Current Version | Previous Version | Text Only | Print | Product List | Glossary On
Versions: 1 2 3 4 5 6 7 8 9 10 11 12 13 14 15 16 17 18 19 20 21 22 23 24
000
FTUS41 KPBZ 041120
TAFDUJ
TAF
KDUJ 041120Z 0412/0512 VRB03KT 2SM BR SKC
      TEMPO 0412/0413 1SM BR OVC002
     FM041400 27011G18KT P6SM BKN050
     FM050000 VRB04KT P6SM BKN040=

USA.gov is the U.S. government's official web portal to all federal, state and local government web resources and services.